createdAt,value
2017-05-15T00:00:06.417Z,0
2017-05-15T00:01:21.058Z,0
2017-05-15T00:02:06.498Z,0
2017-05-15T00:03:06.186Z,0
2017-05-15T00:04:06.206Z,0
2017-05-15T00:05:06.232Z,0
2017-05-15T00:06:06.264Z,0
2017-05-15T00:07:06.275Z,0
2017-05-15T00:08:06.599Z,0
2017-05-15T00:09:06.319Z,0
2017-05-15T00:10:06.348Z,0
2017-05-15T00:11:06.367Z,0
2017-05-15T00:12:21.310Z,0
2017-05-15T00:13:21.030Z,0
2017-05-15T00:14:06.737Z,0
2017-05-15T00:15:06.763Z,0
2017-05-15T00:16:21.095Z,0
2017-05-15T00:17:21.426Z,0
2017-05-15T00:18:06.829Z,0
2017-05-15T00:19:06.898Z,0
2017-05-15T00:20:06.882Z,0
2017-05-15T00:21:06.596Z,0
2017-05-15T00:22:06.927Z,0
2017-05-15T00:24:36.205Z,0
2017-05-15T00:25:21.607Z,0
2017-05-15T00:26:07.015Z,0
2017-05-15T00:27:06.732Z,0
2017-05-15T00:28:21.736Z,0
2017-05-15T00:29:07.079Z,0
2017-05-15T00:30:21.722Z,0
2017-05-15T00:31:06.826Z,0
2017-05-15T00:33:07.175Z,0
2017-05-15T00:35:07.222Z,0
2017-05-15T00:36:07.243Z,0
2017-05-15T00:37:06.964Z,0
2017-05-15T00:38:07.284Z,0
2017-05-15T00:39:07.314Z,0
2017-05-15T00:40:07.035Z,0
2017-05-15T00:41:07.354Z,0
2017-05-15T00:42:07.427Z,0
2017-05-15T00:43:07.398Z,0
2017-05-15T00:44:07.432Z,0
2017-05-15T00:45:22.061Z,0
2017-05-15T00:46:22.086Z,0
2017-05-15T00:47:07.493Z,0
2017-05-15T00:48:07.212Z,0
2017-05-15T00:49:07.542Z,0
2017-05-15T00:51:07.591Z,0
2017-05-15T00:52:07.608Z,0
2017-05-15T00:53:21.952Z,0
2017-05-15T00:54:07.649Z,0
2017-05-15T00:55:07.677Z,0
2017-05-15T00:56:22.310Z,0
2017-05-15T00:57:07.719Z,0
2017-05-15T00:58:22.362Z,0
2017-05-15T00:59:22.390Z,0
2017-05-15T01:00:07.787Z,0
2017-05-15T01:01:07.807Z,0
2017-05-15T01:02:07.832Z,0
2017-05-15T01:03:07.551Z,0
2017-05-15T01:04:22.493Z,0
2017-05-15T01:05:07.595Z,0
2017-05-15T01:06:07.919Z,0
2017-05-15T01:07:22.603Z,0
2017-05-15T01:08:22.586Z,0
2017-05-15T01:09:07.990Z,0
2017-05-15T01:10:07.718Z,0
2017-05-15T01:11:08.037Z,0
2017-05-15T01:12:22.672Z,0
2017-05-15T01:13:08.083Z,0
2017-05-15T01:14:07.799Z,0
2017-05-15T01:15:37.054Z,0
2017-05-15T01:16:08.149Z,0
2017-05-15T01:17:07.868Z,0
2017-05-15T01:18:22.809Z,0
2017-05-15T01:19:08.216Z,0
2017-05-15T01:20:22.856Z,0
2017-05-15T01:21:08.264Z,0
2017-05-15T01:22:07.683Z,0
2017-05-15T01:23:08.304Z,0
2017-05-15T01:24:08.025Z,0
2017-05-15T01:25:07.744Z,0
2017-05-15T01:26:08.068Z,0
2017-05-15T01:27:08.400Z,0
2017-05-15T01:28:23.046Z,0
2017-05-15T01:29:08.442Z,0
2017-05-15T01:30:08.463Z,0
2017-05-15T01:31:22.802Z,0
2017-05-15T01:32:08.519Z,0
2017-05-15T01:33:08.540Z,0
2017-05-15T01:34:08.556Z,0
2017-05-15T01:35:08.581Z,0
2017-05-15T01:36:23.218Z,0
2017-05-15T01:37:08.624Z,0
2017-05-15T01:38:08.649Z,0
2017-05-15T01:39:08.673Z,0
2017-05-15T01:40:08.439Z,0
2017-05-15T01:41:08.713Z,0
2017-05-15T01:42:08.739Z,0
2017-05-15T01:43:23.073Z,0
2017-05-15T01:44:08.785Z,0
2017-05-15T01:45:08.809Z,0
2017-05-15T01:46:08.828Z,0
2017-05-15T01:47:08.852Z,0
2017-05-15T01:48:23.487Z,0
2017-05-15T01:49:08.898Z,0
2017-05-15T01:50:08.618Z,0
2017-05-15T01:51:08.641Z,0
2017-05-15T01:52:23.582Z,0
2017-05-15T01:53:23.602Z,0
2017-05-15T01:54:09.014Z,0
2017-05-15T01:55:09.052Z,0
2017-05-15T01:57:09.089Z,0
2017-05-15T01:58:09.104Z,0
2017-05-15T01:59:09.125Z,0
2017-05-15T02:00:09.147Z,0
2017-05-15T02:01:09.170Z,0
2017-05-15T02:02:23.808Z,0
2017-05-15T02:03:09.214Z,0
2017-05-15T02:04:09.250Z,0
2017-05-15T02:05:23.574Z,0
2017-05-15T02:06:09.295Z,0
2017-05-15T02:07:23.926Z,0
2017-05-15T02:08:09.332Z,0
2017-05-15T02:09:09.371Z,0
2017-05-15T02:10:09.073Z,0
2017-05-15T02:12:09.478Z,0
2017-05-15T02:13:09.443Z,0
2017-05-15T02:14:09.474Z,0
2017-05-15T02:15:09.495Z,0
2017-05-15T02:16:09.514Z,0
2017-05-15T02:17:09.234Z,0
2017-05-15T02:18:24.177Z,0
2017-05-15T02:19:24.204Z,0
2017-05-15T02:20:09.604Z,0
2017-05-15T02:21:09.327Z,0
2017-05-15T02:22:09.649Z,0
2017-05-15T02:23:09.372Z,0
2017-05-15T02:24:09.698Z,0
2017-05-15T02:25:09.468Z,0
2017-05-15T02:26:09.140Z,0
2017-05-15T02:27:24.388Z,0
2017-05-15T02:28:09.485Z,0
2017-05-15T02:29:24.125Z,0
2017-05-15T02:30:09.534Z,0
2017-05-15T02:31:09.566Z,0
2017-05-15T02:32:24.498Z,0
2017-05-15T02:33:24.521Z,0
2017-05-15T02:35:09.642Z,0
2017-05-15T02:36:09.976Z,0
2017-05-15T02:37:09.999Z,0
2017-05-15T02:38:10.019Z,0
2017-05-15T02:39:24.358Z,0
2017-05-15T02:40:09.456Z,0
2017-05-15T02:41:09.787Z,0
2017-05-15T02:42:09.806Z,0
2017-05-15T02:43:09.825Z,0
2017-05-15T02:44:09.855Z,0
2017-05-15T02:45:09.873Z,0
2017-05-15T02:46:10.199Z,0
2017-05-15T02:47:09.923Z,0
2017-05-15T02:48:09.944Z,0
2017-05-15T02:49:10.269Z,0
2017-05-15T02:50:09.986Z,0
2017-05-15T02:51:10.315Z,0
2017-05-15T02:52:25.003Z,0
2017-05-15T02:53:10.058Z,0
2017-05-15T02:54:10.080Z,0
2017-05-15T02:56:10.126Z,0
2017-05-15T02:57:10.452Z,0
2017-05-15T02:58:10.476Z,0
2017-05-15T02:59:10.536Z,0
2017-05-15T03:01:25.163Z,0
2017-05-15T03:02:25.183Z,0
2017-05-15T03:03:10.590Z,0
2017-05-15T03:04:10.308Z,0
2017-05-15T03:05:10.331Z,0
2017-05-15T03:06:10.356Z,0
2017-05-15T03:07:24.996Z,0
2017-05-15T03:08:10.706Z,0
2017-05-15T03:09:10.425Z,0
2017-05-15T03:10:10.143Z,0
2017-05-15T03:11:25.090Z,0
2017-05-15T03:12:10.490Z,0
2017-05-15T03:13:10.517Z,0
2017-05-15T03:15:10.864Z,0
2017-05-15T03:16:10.583Z,0
2017-05-15T03:17:10.908Z,0
2017-05-15T03:18:10.676Z,0
2017-05-15T03:19:25.572Z,0
2017-05-15T03:20:25.606Z,0
2017-05-15T03:21:11.001Z,0
2017-05-15T03:22:10.718Z,0
2017-05-15T03:23:11.052Z,0
2017-05-15T03:24:11.068Z,0
2017-05-15T03:25:10.791Z,0
2017-05-15T03:26:25.729Z,0
2017-05-15T03:27:25.755Z,0
2017-05-15T03:28:11.160Z,0
2017-05-15T03:29:11.233Z,0
2017-05-15T03:30:11.204Z,0
2017-05-15T03:31:11.232Z,0
2017-05-15T03:32:11.254Z,0
2017-05-15T03:33:11.274Z,0
2017-05-15T03:34:11.302Z,0
2017-05-15T03:35:11.370Z,0
2017-05-15T03:36:11.345Z,0
2017-05-15T03:37:25.980Z,5
2017-05-15T03:38:11.434Z,5
2017-05-15T03:39:26.031Z,5
2017-05-15T03:40:25.748Z,5
2017-05-15T03:41:11.455Z,5
2017-05-15T03:43:11.503Z,5
2017-05-15T03:44:11.223Z,10
2017-05-15T03:46:11.268Z,10
2017-05-15T03:47:11.594Z,10
2017-05-15T03:48:11.008Z,10
2017-05-15T03:49:11.346Z,10
2017-05-15T03:50:25.975Z,10
2017-05-15T03:51:11.682Z,10
2017-05-15T03:52:11.733Z,10
2017-05-15T03:53:11.731Z,10
2017-05-15T03:54:26.372Z,10
2017-05-15T03:55:26.398Z,10
2017-05-15T03:56:11.798Z,10
2017-05-15T03:57:11.825Z,10
2017-05-15T03:58:11.542Z,10
2017-05-15T03:59:11.918Z,10
2017-05-15T04:00:11.896Z,10
2017-05-15T04:01:12.171Z,15
2017-05-15T04:02:11.942Z,15
2017-05-15T04:03:11.959Z,15
2017-05-15T04:04:11.984Z,15
2017-05-15T04:05:12.009Z,15
2017-05-15T04:06:12.031Z,15
2017-05-15T04:07:12.062Z,15
2017-05-15T04:08:11.837Z,15
2017-05-15T04:09:26.718Z,15
2017-05-15T04:10:11.828Z,15
2017-05-15T04:11:11.842Z,15
2017-05-15T04:12:26.785Z,15
2017-05-15T04:13:11.888Z,15
2017-05-15T04:14:26.831Z,15
2017-05-15T04:15:11.936Z,15
2017-05-15T04:16:11.963Z,15
2017-05-15T04:17:11.983Z,15
2017-05-15T04:18:12.011Z,15
2017-05-15T04:19:12.030Z,15
2017-05-15T04:20:11.747Z,15
2017-05-15T04:21:12.377Z,15
2017-05-15T04:22:27.017Z,15
2017-05-15T04:23:12.122Z,15
2017-05-15T04:24:12.146Z,15
2017-05-15T04:25:26.782Z,15
2017-05-15T04:26:27.109Z,20
2017-05-15T04:27:12.212Z,20
2017-05-15T04:28:12.537Z,20
2017-05-15T04:29:12.258Z,20
2017-05-15T04:31:12.313Z,20
2017-05-15T04:32:27.243Z,25
2017-05-15T04:33:12.356Z,25
2017-05-15T04:34:12.372Z,25
2017-05-15T04:35:12.103Z,25
2017-05-15T04:36:12.117Z,30
2017-05-15T04:37:12.747Z,30
2017-05-15T04:38:27.387Z,35
2017-05-15T04:39:12.804Z,35
2017-05-15T04:40:27.130Z,40
2017-05-15T04:41:27.469Z,45
2017-05-15T04:42:12.256Z,45
2017-05-15T04:43:27.503Z,50
2017-05-15T04:44:12.916Z,50
2017-05-15T04:45:12.937Z,55
2017-05-15T04:46:27.574Z,60
2017-05-15T04:47:12.983Z,65
2017-05-15T04:48:12.698Z,75
2017-05-15T04:49:13.025Z,80
2017-05-15T04:50:13.053Z,85
2017-05-15T04:51:12.765Z,90
2017-05-15T04:52:13.096Z,100
2017-05-15T04:53:13.124Z,105
2017-05-15T04:54:12.846Z,115
2017-05-15T04:55:12.253Z,120
2017-05-15T04:56:12.933Z,125
2017-05-15T04:59:13.262Z,140
2017-05-15T05:00:27.901Z,140
2017-05-15T05:01:13.309Z,145
2017-05-15T05:02:27.646Z,150
2017-05-15T05:03:13.361Z,160
2017-05-15T05:04:13.384Z,175
2017-05-15T05:05:13.402Z,200
2017-05-15T05:06:13.433Z,440
2017-05-15T05:07:13.454Z,470
2017-05-15T05:08:12.864Z,710
2017-05-15T05:09:13.207Z,760
2017-05-15T05:10:13.220Z,685
2017-05-15T05:11:13.554Z,835
2017-05-15T05:12:13.600Z,875
2017-05-15T05:13:28.217Z,940
2017-05-15T05:14:13.622Z,960
2017-05-15T05:15:27.962Z,910
2017-05-15T05:16:28.291Z,965
2017-05-15T05:17:28.319Z,890
2017-05-15T05:18:13.731Z,900
2017-05-15T05:19:13.454Z,940
2017-05-15T05:20:13.781Z,1040
2017-05-15T05:21:13.815Z,1035
2017-05-15T05:22:13.838Z,1020
2017-05-15T05:23:28.488Z,995
2017-05-15T05:24:13.891Z,995
2017-05-15T05:25:13.618Z,1005
2017-05-15T05:26:13.649Z,1010
2017-05-15T05:27:13.977Z,1015
2017-05-15T05:28:14.007Z,1050
2017-05-15T05:29:43.275Z,1070
2017-05-15T05:30:14.066Z,1055
2017-05-15T05:31:14.102Z,1060
2017-05-15T05:32:13.828Z,1040
2017-05-15T05:33:13.859Z,1030
2017-05-15T05:34:14.191Z,990
2017-05-15T05:35:14.223Z,1015
2017-05-15T05:37:14.288Z,1005
2017-05-15T05:38:14.019Z,1040
2017-05-15T05:39:28.674Z,1035
2017-05-15T05:40:14.381Z,1030
2017-05-15T05:41:14.110Z,1040
2017-05-15T05:42:29.067Z,1010
2017-05-15T05:43:14.486Z,1015
2017-05-15T05:44:14.523Z,1020
2017-05-15T05:45:14.564Z,990
2017-05-15T05:46:29.204Z,1055
2017-05-15T05:47:14.354Z,1080
2017-05-15T05:48:14.342Z,1065
2017-05-15T05:49:29.309Z,1110
2017-05-15T05:50:14.420Z,1090
2017-05-15T05:51:14.447Z,1100
2017-05-15T05:52:14.829Z,1105
2017-05-15T05:53:14.831Z,1045
2017-05-15T05:55:14.888Z,575
2017-05-15T05:56:14.617Z,400
2017-05-15T05:57:14.959Z,545
2017-05-15T05:58:14.995Z,685
2017-05-15T05:59:15.022Z,410
2017-05-15T06:00:29.679Z,795
2017-05-15T06:01:15.091Z,1030
2017-05-15T06:02:29.748Z,1075
2017-05-15T06:03:14.857Z,1075
2017-05-15T06:04:29.509Z,1020
2017-05-15T06:05:29.845Z,1075
2017-05-15T06:06:14.654Z,1095
2017-05-15T06:07:14.991Z,1110
2017-05-15T06:08:15.027Z,1140
2017-05-15T06:09:29.681Z,1150
2017-05-15T06:10:15.092Z,1115
2017-05-15T06:11:15.131Z,970
2017-05-15T06:12:15.164Z,965
2017-05-15T06:13:44.745Z,960
2017-05-15T06:14:15.239Z,1015
2017-05-15T06:15:15.264Z,1055
2017-05-15T06:16:15.606Z,965
2017-05-15T06:17:29.655Z,1005
2017-05-15T06:18:30.296Z,1055
2017-05-15T06:19:15.407Z,1075
2017-05-15T06:20:30.076Z,1065
2017-05-15T06:23:15.862Z,1095
2017-05-15T06:24:15.886Z,1060
2017-05-15T06:26:15.962Z,1150
2017-05-15T06:27:30.313Z,1095
2017-05-15T06:28:16.032Z,1085
2017-05-15T06:29:30.728Z,1120
2017-05-15T06:30:30.416Z,1085
2017-05-15T06:31:15.840Z,1075
2017-05-15T06:32:15.869Z,1095
2017-05-15T06:33:15.906Z,1090
2017-05-15T06:34:15.955Z,1095
2017-05-15T06:35:16.288Z,1105
2017-05-15T06:36:30.939Z,1110
2017-05-15T06:37:30.974Z,1075
2017-05-15T06:38:16.407Z,1055
2017-05-15T06:39:16.427Z,1020
2017-05-15T06:40:16.158Z,1020
2017-05-15T06:41:16.196Z,1015
2017-05-15T06:42:16.235Z,970
2017-05-15T06:43:16.581Z,960
2017-05-15T06:44:31.297Z,995
2017-05-15T06:45:16.644Z,975
2017-05-15T06:46:31.302Z,930
2017-05-15T06:47:16.417Z,880
2017-05-15T06:48:16.154Z,865
2017-05-15T06:49:16.799Z,860
2017-05-15T06:50:16.526Z,820
2017-05-15T06:51:16.567Z,735
2017-05-15T06:52:31.540Z,715
2017-05-15T06:53:16.638Z,725
2017-05-15T06:56:16.442Z,705
2017-05-15T06:57:16.785Z,690
2017-05-15T06:58:16.518Z,660
2017-05-15T06:59:16.858Z,635
2017-05-15T07:00:16.894Z,590
2017-05-15T07:01:17.236Z,575
2017-05-15T07:02:31.891Z,615
2017-05-15T07:03:17.005Z,595
2017-05-15T07:04:16.439Z,645
2017-05-15T07:05:31.698Z,675
2017-05-15T07:06:16.509Z,685
2017-05-15T07:07:32.075Z,705
2017-05-15T07:08:17.197Z,755
2017-05-15T07:09:17.228Z,985
2017-05-15T07:10:17.266Z,1320
2017-05-15T07:11:16.692Z,1455
2017-05-15T07:12:17.640Z,1445
2017-05-15T07:13:17.067Z,1325
2017-05-15T07:14:31.728Z,1050
2017-05-15T07:15:17.748Z,1070
2017-05-15T07:16:32.408Z,1075
2017-05-15T07:17:17.517Z,1055
2017-05-15T07:18:17.253Z,1030
2017-05-15T07:19:17.604Z,1045
2017-05-15T07:20:17.931Z,1060
2017-05-15T07:21:32.609Z,1085
2017-05-15T07:22:32.629Z,1075
2017-05-15T07:24:32.712Z,1030
2017-05-15T07:26:17.581Z,1035
2017-05-15T07:27:17.893Z,1080
2017-05-15T07:30:18.307Z,1015
2017-05-15T07:31:18.037Z,1005
2017-05-15T07:32:33.000Z,1025
2017-05-15T07:33:18.127Z,990
2017-05-15T07:34:32.773Z,945
2017-05-15T07:35:18.490Z,990
2017-05-15T07:36:32.849Z,980
2017-05-15T07:37:18.264Z,1000
2017-05-15T07:38:33.230Z,1000
2017-05-15T07:39:18.653Z,810
2017-05-15T07:40:33.300Z,1050
2017-05-15T07:41:18.421Z,960
2017-05-15T07:42:18.450Z,955
2017-05-15T07:43:18.803Z,835
2017-05-15T07:44:33.453Z,385
2017-05-15T07:46:18.907Z,765
2017-05-15T07:47:18.643Z,360
2017-05-15T07:48:18.981Z,335
2017-05-15T07:49:19.022Z,415
2017-05-15T07:50:19.054Z,355
2017-05-15T07:51:19.090Z,445
2017-05-15T07:52:33.747Z,540
2017-05-15T07:53:18.858Z,415
2017-05-15T07:54:18.895Z,345
2017-05-15T07:56:33.888Z,365
2017-05-15T07:57:19.001Z,350
2017-05-15T07:58:19.040Z,510
2017-05-15T07:59:19.378Z,455
2017-05-15T08:00:19.109Z,665
2017-05-15T08:01:19.457Z,460
2017-05-15T08:02:19.177Z,500
2017-05-15T08:03:18.911Z,540
2017-05-15T08:04:19.256Z,605
2017-05-15T08:05:18.977Z,745
2017-05-15T08:06:34.243Z,460
2017-05-15T08:07:19.052Z,425
2017-05-15T08:08:19.715Z,430
2017-05-15T08:09:19.427Z,585
2017-05-15T08:10:19.162Z,530
2017-05-15T08:11:34.410Z,500
2017-05-15T08:12:34.143Z,640
2017-05-15T08:13:19.608Z,520
2017-05-15T08:14:19.899Z,400
2017-05-15T08:15:19.633Z,330
2017-05-15T08:17:19.392Z,285
2017-05-15T08:18:20.035Z,275
2017-05-15T08:19:19.767Z,265
2017-05-15T08:20:19.795Z,240
2017-05-15T08:21:19.832Z,220
2017-05-15T08:22:19.863Z,215
2017-05-15T08:23:20.203Z,225
2017-05-15T08:24:20.237Z,345
2017-05-15T08:25:20.269Z,275
2017-05-15T08:26:34.920Z,410
2017-05-15T08:27:34.649Z,330
2017-05-15T08:29:20.096Z,310
2017-05-15T08:30:35.058Z,330
2017-05-15T08:31:20.163Z,280
2017-05-15T08:32:20.505Z,265
2017-05-15T08:33:20.536Z,270
2017-05-15T08:34:35.184Z,355
2017-05-15T08:35:20.598Z,545
2017-05-15T08:36:20.328Z,435
2017-05-15T08:37:20.661Z,300
2017-05-15T08:38:35.012Z,290
2017-05-15T08:39:35.349Z,550
2017-05-15T08:40:35.074Z,545
2017-05-15T08:41:20.787Z,530
2017-05-15T08:42:20.874Z,540
2017-05-15T08:43:20.560Z,540
2017-05-15T08:44:35.504Z,535
2017-05-15T08:45:20.919Z,530
2017-05-15T08:46:20.956Z,535
2017-05-15T08:47:20.989Z,540
2017-05-15T08:48:50.263Z,350
2017-05-15T08:49:20.749Z,410
2017-05-15T08:50:35.705Z,550
2017-05-15T08:51:35.738Z,545
2017-05-15T08:52:20.845Z,540
2017-05-15T08:53:21.190Z,555
2017-05-15T08:55:50.491Z,535
2017-05-15T08:56:35.603Z,330
2017-05-15T08:57:35.636Z,365
2017-05-15T08:58:35.973Z,570
2017-05-15T08:59:36.006Z,560
2017-05-15T09:00:21.117Z,540
2017-05-15T09:01:21.155Z,535
2017-05-15T09:02:21.491Z,425
2017-05-15T09:03:20.968Z,315
2017-05-15T09:04:35.874Z,365
2017-05-15T09:05:21.284Z,410
2017-05-15T09:06:21.019Z,480
2017-05-15T09:07:21.708Z,525
2017-05-15T09:08:21.692Z,530
2017-05-15T09:09:21.733Z,515
2017-05-15T09:10:21.762Z,480
2017-05-15T09:11:21.794Z,420
2017-05-15T09:12:21.831Z,455
2017-05-15T09:13:36.478Z,345
2017-05-15T09:14:21.592Z,435
2017-05-15T09:16:21.963Z,410
2017-05-15T09:18:36.660Z,295
2017-05-15T09:19:21.760Z,285
2017-05-15T09:20:22.093Z,285
2017-05-15T09:21:36.755Z,330
2017-05-15T09:22:22.168Z,345
2017-05-15T09:23:21.598Z,345
2017-05-15T09:24:22.230Z,385
2017-05-15T09:25:21.660Z,465
2017-05-15T09:26:51.537Z,345
2017-05-15T09:27:22.036Z,410
2017-05-15T09:28:22.068Z,420
2017-05-15T09:29:22.108Z,305
2017-05-15T09:30:37.050Z,305
2017-05-15T09:31:36.778Z,300
2017-05-15T09:32:21.937Z,290
2017-05-15T09:34:21.963Z,255
2017-05-15T09:35:22.294Z,245
2017-05-15T09:36:22.631Z,240
2017-05-15T09:37:22.666Z,280
2017-05-15T09:38:22.695Z,285
2017-05-15T09:39:22.123Z,310
2017-05-15T09:40:37.379Z,310
2017-05-15T09:41:22.792Z,285
2017-05-15T09:42:22.522Z,275
2017-05-15T09:43:22.551Z,285
2017-05-15T09:44:22.585Z,280
2017-05-15T09:45:22.936Z,270
2017-05-15T09:46:22.955Z,315
2017-05-15T09:47:37.610Z,325
2017-05-15T09:48:22.716Z,325
2017-05-15T09:49:22.747Z,325
2017-05-15T09:50:22.472Z,340
2017-05-15T09:51:22.807Z,345
2017-05-15T09:52:23.154Z,345
2017-05-15T09:53:37.491Z,325
2017-05-15T09:54:22.903Z,330
2017-05-15T09:55:22.930Z,255
2017-05-15T09:56:22.965Z,230
2017-05-15T09:57:22.996Z,245
2017-05-15T09:58:23.053Z,345
2017-05-15T09:59:23.080Z,340
2017-05-15T10:00:23.413Z,320
2017-05-15T10:01:23.430Z,365
2017-05-15T10:02:38.074Z,370
2017-05-15T10:03:23.191Z,375
2017-05-15T10:06:23.291Z,230
2017-05-15T10:07:23.621Z,365
2017-05-15T10:08:23.649Z,370
2017-05-15T10:09:23.082Z,360
2017-05-15T10:10:38.328Z,315
2017-05-15T10:11:38.054Z,250
2017-05-15T10:12:38.093Z,255
2017-05-15T10:13:38.428Z,270
2017-05-15T10:14:23.892Z,255
2017-05-15T10:15:38.182Z,330
2017-05-15T10:16:23.909Z,290
2017-05-15T10:17:23.928Z,370
2017-05-15T10:18:23.960Z,290
2017-05-15T10:19:23.694Z,245
2017-05-15T10:20:38.635Z,350
2017-05-15T10:22:24.087Z,325
2017-05-15T10:23:24.127Z,310
2017-05-15T10:24:23.840Z,200
2017-05-15T10:25:24.177Z,305
2017-05-15T10:26:38.521Z,200
2017-05-15T10:27:38.914Z,300
2017-05-15T10:28:24.264Z,275
2017-05-15T10:29:23.735Z,300
2017-05-15T10:30:24.338Z,305
2017-05-15T10:31:24.358Z,300
2017-05-15T10:32:24.406Z,305
2017-05-15T10:33:24.113Z,290
2017-05-15T10:34:39.368Z,230
2017-05-15T10:35:24.178Z,285
2017-05-15T10:36:24.514Z,285
2017-05-15T10:38:24.574Z,220
2017-05-15T10:39:24.297Z,295
2017-05-15T10:40:24.634Z,305
2017-05-15T10:41:38.980Z,315
2017-05-15T10:42:24.694Z,310
2017-05-15T10:43:24.724Z,235
2017-05-15T10:44:24.761Z,255
2017-05-15T10:45:39.401Z,205
2017-05-15T10:46:24.512Z,200
2017-05-15T10:47:24.849Z,190
2017-05-15T10:48:24.569Z,200
2017-05-15T10:49:24.961Z,180
2017-05-15T10:51:24.363Z,200
2017-05-15T10:53:24.742Z,175
2017-05-15T10:54:24.754Z,160
2017-05-15T10:55:25.088Z,160
2017-05-15T10:56:54.358Z,155
2017-05-15T10:57:25.155Z,200
2017-05-15T10:58:39.796Z,265
2017-05-15T10:59:24.902Z,265
2017-05-15T11:00:39.852Z,270
2017-05-15T11:01:25.267Z,255
2017-05-15T11:02:39.610Z,265
2017-05-15T11:03:39.941Z,265
2017-05-15T11:04:25.356Z,270
2017-05-15T11:05:39.999Z,210
2017-05-15T11:07:25.456Z,175
2017-05-15T11:08:25.481Z,170
2017-05-15T11:09:25.195Z,255
2017-05-15T11:10:25.227Z,250
2017-05-15T11:11:24.949Z,255
2017-05-15T11:12:25.296Z,215
2017-05-15T11:13:25.617Z,170
2017-05-15T11:14:25.643Z,230
2017-05-15T11:15:25.687Z,260
2017-05-15T11:16:54.638Z,260
2017-05-15T11:17:25.734Z,255
2017-05-15T11:18:54.695Z,165
2017-05-15T11:19:25.849Z,155
2017-05-15T11:20:25.821Z,155
2017-05-15T11:21:40.418Z,240
2017-05-15T11:22:40.556Z,225
2017-05-15T11:23:25.915Z,200
2017-05-15T11:24:25.949Z,215
2017-05-15T11:25:25.965Z,165
2017-05-15T11:26:25.997Z,235
2017-05-15T11:27:25.721Z,230
2017-05-15T11:28:40.374Z,225
2017-05-15T11:29:25.796Z,220
2017-05-15T11:30:26.117Z,210
2017-05-15T11:31:26.172Z,205
2017-05-15T11:32:26.173Z,205
2017-05-15T11:33:26.206Z,200
2017-05-15T11:34:26.234Z,195
2017-05-15T11:35:55.495Z,190
2017-05-15T11:36:25.997Z,190
2017-05-15T11:37:40.935Z,190
2017-05-15T11:38:40.963Z,195
2017-05-15T11:39:26.381Z,190
2017-05-15T11:40:26.405Z,195
2017-05-15T11:41:26.436Z,190
2017-05-15T11:42:26.465Z,190
2017-05-15T11:43:26.194Z,135
2017-05-15T11:44:26.216Z,185
2017-05-15T11:45:40.868Z,145
2017-05-15T11:46:55.818Z,130
2017-05-15T11:47:41.231Z,175
2017-05-15T11:48:26.334Z,180
2017-05-15T11:49:41.287Z,180
2017-05-15T11:50:41.311Z,180
2017-05-15T11:51:26.724Z,180
2017-05-15T11:52:26.454Z,180
2017-05-15T11:53:26.786Z,175
2017-05-15T11:54:26.507Z,180
2017-05-15T11:55:26.836Z,180
2017-05-15T11:56:26.871Z,180
2017-05-15T11:57:26.894Z,185
2017-05-15T11:59:41.579Z,185
2017-05-15T12:00:26.983Z,185
2017-05-15T12:01:27.011Z,190
2017-05-15T12:02:27.038Z,185
2017-05-15T12:03:27.069Z,185
2017-05-15T12:04:26.788Z,180
2017-05-15T12:05:27.122Z,180
2017-05-15T12:06:27.158Z,175
2017-05-15T12:07:41.848Z,175
2017-05-15T12:08:27.210Z,175
2017-05-15T12:09:41.857Z,180
2017-05-15T12:10:41.881Z,180
2017-05-15T12:11:27.294Z,180
2017-05-15T12:13:27.357Z,185
2017-05-15T12:14:27.084Z,190
2017-05-15T12:15:27.109Z,190
2017-05-15T12:16:27.437Z,190
2017-05-15T12:17:27.159Z,190
2017-05-15T12:18:27.496Z,180
2017-05-15T12:19:27.523Z,160
2017-05-15T12:20:42.164Z,185
2017-05-15T12:21:41.895Z,185
2017-05-15T12:22:42.228Z,180
2017-05-15T12:23:41.949Z,180
2017-05-15T12:24:27.355Z,180
2017-05-15T12:25:42.006Z,175
2017-05-15T12:27:27.801Z,175
2017-05-15T12:28:27.476Z,175
2017-05-15T12:29:27.504Z,180
2017-05-15T12:30:27.833Z,180
2017-05-15T12:31:42.178Z,185
2017-05-15T12:32:42.203Z,185
2017-05-15T12:33:27.924Z,170
2017-05-15T12:34:27.643Z,135
2017-05-15T12:35:27.973Z,175
2017-05-15T12:36:27.696Z,120
2017-05-15T12:37:42.649Z,115
2017-05-15T12:38:27.754Z,115
2017-05-15T12:39:27.790Z,115
2017-05-15T12:40:28.115Z,120
2017-05-15T12:41:42.765Z,130
2017-05-15T12:42:28.173Z,190
2017-05-15T12:43:27.899Z,205
2017-05-15T12:44:28.226Z,205
2017-05-15T12:45:28.258Z,205
2017-05-15T12:46:27.999Z,205
2017-05-15T12:47:42.630Z,190
2017-05-15T12:48:28.346Z,205
2017-05-15T12:49:28.370Z,195
2017-05-15T12:50:28.402Z,195
2017-05-15T12:51:28.423Z,195
2017-05-15T12:52:28.158Z,195
2017-05-15T12:53:43.096Z,195
2017-05-15T12:54:28.538Z,195
2017-05-15T12:55:28.537Z,135
2017-05-15T12:56:43.182Z,125
2017-05-15T12:57:43.214Z,175
2017-05-15T12:58:28.618Z,200
2017-05-15T12:59:28.650Z,200
2017-05-15T13:00:28.386Z,200
2017-05-15T13:01:28.705Z,200
2017-05-15T13:04:28.791Z,160
2017-05-15T13:05:28.825Z,195
2017-05-15T13:06:58.086Z,200
2017-05-15T13:07:58.111Z,195
2017-05-15T13:08:28.631Z,195
2017-05-15T13:09:28.941Z,195
2017-05-15T13:10:28.655Z,195
2017-05-15T13:11:43.604Z,195
2017-05-15T13:12:43.642Z,185
2017-05-15T13:13:29.041Z,185
2017-05-15T13:15:28.839Z,185
2017-05-15T13:16:29.132Z,120
2017-05-15T13:17:29.157Z,170
2017-05-15T13:18:28.876Z,175
2017-05-15T13:19:28.605Z,145
2017-05-15T13:20:28.936Z,175
2017-05-15T13:22:29.298Z,105
2017-05-15T13:24:29.351Z,110
2017-05-15T13:25:29.078Z,110
2017-05-15T13:26:29.405Z,120
2017-05-15T13:27:44.052Z,105
2017-05-15T13:28:29.459Z,135
2017-05-15T13:29:29.489Z,185
2017-05-15T13:30:29.521Z,190
2017-05-15T13:31:29.548Z,190
2017-05-15T13:32:29.575Z,185
2017-05-15T13:33:29.610Z,185
2017-05-15T13:34:29.326Z,125
2017-05-15T13:36:29.380Z,170
2017-05-15T13:37:29.719Z,170
2017-05-15T13:38:29.785Z,170
2017-05-15T13:39:29.767Z,170
2017-05-15T13:40:29.488Z,170
2017-05-15T13:41:44.436Z,170
2017-05-15T13:42:29.852Z,175
2017-05-15T13:43:29.881Z,170
2017-05-15T13:44:44.521Z,95
2017-05-15T13:45:29.932Z,150
2017-05-15T13:46:29.658Z,170
2017-05-15T13:47:29.394Z,165
2017-05-15T13:48:30.012Z,170
2017-05-15T13:49:30.046Z,170
2017-05-15T13:50:30.069Z,170
2017-05-15T13:51:29.798Z,170
2017-05-15T13:52:29.825Z,170
2017-05-15T13:53:44.777Z,170
2017-05-15T13:54:30.188Z,170
2017-05-15T13:55:30.210Z,170
2017-05-15T13:57:44.879Z,175
2017-05-15T13:58:44.908Z,175
2017-05-15T13:59:44.954Z,175
2017-05-15T14:00:44.660Z,175
2017-05-15T14:01:30.389Z,175
2017-05-15T14:02:45.036Z,175
2017-05-15T14:03:45.054Z,175
2017-05-15T14:06:37.225Z,170
2017-05-15T14:06:53.706Z,175
2017-05-15T14:07:53.728Z,175
2017-05-15T14:10:13.584Z,175
2017-05-15T14:10:59.298Z,175
2017-05-15T14:12:13.637Z,175
2017-05-15T14:13:59.380Z,175
2017-05-15T14:14:59.404Z,180
2017-05-15T14:15:59.432Z,180
2017-05-15T14:16:59.205Z,180
2017-05-15T14:17:59.486Z,180
2017-05-15T14:19:13.832Z,180
2017-05-15T14:19:59.548Z,180
2017-05-15T14:20:59.570Z,180
2017-05-15T14:21:59.295Z,180
2017-05-15T14:23:28.558Z,180
2017-05-15T14:23:59.655Z,180
2017-05-15T14:24:59.681Z,180
2017-05-15T14:25:59.711Z,180
2017-05-15T14:27:28.976Z,175
2017-05-15T14:27:59.763Z,175
2017-05-15T14:28:59.486Z,175
2017-05-15T14:29:59.820Z,180
2017-05-15T14:30:59.848Z,105
2017-05-15T14:31:59.875Z,110
2017-05-15T14:32:59.901Z,185
2017-05-15T14:33:59.932Z,115
2017-05-15T14:35:14.582Z,140
2017-05-15T14:36:14.604Z,185
2017-05-15T14:37:14.376Z,190
2017-05-15T14:37:59.742Z,115
2017-05-15T14:39:00.073Z,110
2017-05-15T14:39:59.849Z,105
2017-05-15T14:40:59.829Z,105
2017-05-15T14:43:14.795Z,155
2017-05-15T14:45:00.234Z,100
2017-05-15T14:45:59.960Z,100
2017-05-15T14:47:00.290Z,135
2017-05-15T14:48:00.315Z,170
2017-05-15T14:49:00.345Z,175
2017-05-15T14:50:00.371Z,170
2017-05-15T14:51:00.096Z,100
2017-05-15T14:52:00.425Z,100
2017-05-15T14:53:14.768Z,135
2017-05-15T14:54:14.793Z,165
2017-05-15T14:55:00.209Z,165
2017-05-15T14:56:14.891Z,165
2017-05-15T14:57:00.564Z,165